sensor_id;sensor_type;location;lat;lon;timestamp;pressure;altitude;pressure_sealevel;temperature;humidity
76858;BME280;65830;0.000;0.000;2023-04-06T00:00:37;99555.09;;;3.24;56.28
76858;BME280;65830;0.000;0.000;2023-04-06T00:03:03;99552.09;;;3.15;56.27
76858;BME280;65830;0.000;0.000;2023-04-06T00:05:28;99549.66;;;3.12;56.67
76858;BME280;65830;0.000;0.000;2023-04-06T00:07:57;99543.88;;;3.07;56.17
76858;BME280;65830;0.000;0.000;2023-04-06T00:10:22;99546.38;;;3.09;56.33
76858;BME280;65830;0.000;0.000;2023-04-06T00:12:48;99555.66;;;3.00;56.28
76858;BME280;65830;0.000;0.000;2023-04-06T00:15:14;99544.22;;;3.01;56.74
76858;BME280;65830;0.000;0.000;2023-04-06T00:17:39;99543.09;;;2.91;56.95
76858;BME280;65830;0.000;0.000;2023-04-06T00:20:05;99547.44;;;2.92;56.80
76858;BME280;65830;0.000;0.000;2023-04-06T00:22:32;99541.22;;;2.93;56.41
76858;BME280;65830;0.000;0.000;2023-04-06T00:24:57;99539.34;;;2.95;56.74
76858;BME280;65830;0.000;0.000;2023-04-06T00:27:23;99536.56;;;2.98;56.74
76858;BME280;65830;0.000;0.000;2023-04-06T00:29:49;99526.63;;;2.89;56.73
76858;BME280;65830;0.000;0.000;2023-04-06T00:32:15;99535.63;;;2.85;56.58
76858;BME280;65830;0.000;0.000;2023-04-06T00:34:41;99534.94;;;2.81;56.87
76858;BME280;65830;0.000;0.000;2023-04-06T00:37:07;99540.47;;;2.76;56.99
76858;BME280;65830;0.000;0.000;2023-04-06T00:39:32;99541.03;;;2.67;56.81
76858;BME280;65830;0.000;0.000;2023-04-06T00:41:58;99532.16;;;2.70;57.01
76858;BME280;65830;0.000;0.000;2023-04-06T00:44:24;99529.63;;;2.68;56.96
76858;BME280;65830;0.000;0.000;2023-04-06T00:46:50;99526.25;;;2.66;57.43
76858;BME280;65830;0.000;0.000;2023-04-06T00:49:16;99529.91;;;2.64;57.32
76858;BME280;65830;0.000;0.000;2023-04-06T00:51:42;99523.13;;;2.59;57.27
76858;BME280;65830;0.000;0.000;2023-04-06T00:54:08;99514.66;;;2.56;57.36
76858;BME280;65830;0.000;0.000;2023-04-06T00:56:34;99526.88;;;2.55;57.37
76858;BME280;65830;0.000;0.000;2023-04-06T00:59:00;99522.38;;;2.57;57.71
76858;BME280;65830;0.000;0.000;2023-04-06T01:01:26;99520.81;;;2.55;57.76
76858;BME280;65830;0.000;0.000;2023-04-06T01:03:54;99521.09;;;2.50;57.87
76858;BME280;65830;0.000;0.000;2023-04-06T01:06:20;99514.34;;;2.46;57.91
76858;BME280;65830;0.000;0.000;2023-04-06T01:08:55;99516.09;;;2.46;57.99
76858;BME280;65830;0.000;0.000;2023-04-06T01:11:24;99522.38;;;2.43;57.85
76858;BME280;65830;0.000;0.000;2023-04-06T01:13:51;99508.09;;;2.49;57.39
76858;BME280;65830;0.000;0.000;2023-04-06T01:16:25;99504.03;;;2.43;57.67
76858;BME280;65830;0.000;0.000;2023-04-06T01:19:12;99498.13;;;2.39;57.83
76858;BME280;65830;0.000;0.000;2023-04-06T01:21:41;99501.88;;;2.35;58.20
76858;BME280;65830;0.000;0.000;2023-04-06T01:24:13;99498.34;;;2.36;57.96
76858;BME280;65830;0.000;0.000;2023-04-06T01:26:55;99495.88;;;2.33;58.16
76858;BME280;65830;0.000;0.000;2023-04-06T01:29:22;99490.56;;;2.35;58.12
76858;BME280;65830;0.000;0.000;2023-04-06T01:31:47;99498.34;;;2.36;58.31
76858;BME280;65830;0.000;0.000;2023-04-06T01:34:13;99484.75;;;2.30;58.06
76858;BME280;65830;0.000;0.000;2023-04-06T01:36:39;99487.28;;;2.31;58.15
76858;BME280;65830;0.000;0.000;2023-04-06T01:39:20;99489.66;;;2.36;58.15
76858;BME280;65830;0.000;0.000;2023-04-06T01:41:46;99482.63;;;2.36;57.77
76858;BME280;65830;0.000;0.000;2023-04-06T01:44:16;99482.03;;;2.31;57.99
76858;BME280;65830;0.000;0.000;2023-04-06T01:46:42;99474.09;;;2.33;57.75
76858;BME280;65830;0.000;0.000;2023-04-06T01:49:11;99479.34;;;2.33;57.59
76858;BME280;65830;0.000;0.000;2023-04-06T01:51:39;99470.91;;;2.28;57.83
76858;BME280;65830;0.000;0.000;2023-04-06T01:54:08;99480.53;;;2.27;57.83
76858;BME280;65830;0.000;0.000;2023-04-06T01:56:56;99462.06;;;2.30;57.31
76858;BME280;65830;0.000;0.000;2023-04-06T01:59:30;99468.28;;;2.28;57.48
76858;BME280;65830;0.000;0.000;2023-04-06T02:01:56;99454.94;;;2.32;56.98
76858;BME280;65830;0.000;0.000;2023-04-06T02:04:24;99462.59;;;2.35;57.06
76858;BME280;65830;0.000;0.000;2023-04-06T02:06:56;99454.09;;;2.32;57.37
76858;BME280;65830;0.000;0.000;2023-04-06T02:09:24;99453.75;;;2.38;57.57
76858;BME280;65830;0.000;0.000;2023-04-06T02:11:50;99458.22;;;2.36;57.38
76858;BME280;65830;0.000;0.000;2023-04-06T02:14:15;99451.56;;;2.30;57.36
76858;BME280;65830;0.000;0.000;2023-04-06T02:16:47;99461.09;;;2.31;57.17
76858;BME280;65830;0.000;0.000;2023-04-06T02:19:13;99467.28;;;2.30;57.47
76858;BME280;65830;0.000;0.000;2023-04-06T02:21:38;99459.06;;;2.22;57.71
76858;BME280;65830;0.000;0.000;2023-04-06T02:24:04;99465.13;;;2.23;57.98
76858;BME280;65830;0.000;0.000;2023-04-06T02:26:30;99470.53;;;2.19;58.18
76858;BME280;65830;0.000;0.000;2023-04-06T02:28:55;99473.91;;;2.22;58.35
76858;BME280;65830;0.000;0.000;2023-04-06T02:31:21;99463.53;;;2.20;58.42
76858;BME280;65830;0.000;0.000;2023-04-06T02:33:46;99474.94;;;2.19;58.37
76858;BME280;65830;0.000;0.000;2023-04-06T02:36:14;99476.97;;;2.14;58.41
76858;BME280;65830;0.000;0.000;2023-04-06T02:38:40;99482.19;;;2.14;58.55
76858;BME280;65830;0.000;0.000;2023-04-06T02:41:05;99478.56;;;2.16;59.00
76858;BME280;65830;0.000;0.000;2023-04-06T02:43:32;99475.28;;;2.13;58.93
76858;BME280;65830;0.000;0.000;2023-04-06T02:46:10;99476.19;;;2.12;58.84
76858;BME280;65830;0.000;0.000;2023-04-06T02:48:37;99487.69;;;2.09;58.94
76858;BME280;65830;0.000;0.000;2023-04-06T02:51:03;99479.19;;;2.06;58.79
76858;BME280;65830;0.000;0.000;2023-04-06T02:53:29;99480.69;;;2.10;59.02
76858;BME280;65830;0.000;0.000;2023-04-06T02:55:55;99471.16;;;2.09;58.79
76858;BME280;65830;0.000;0.000;2023-04-06T02:58:24;99475.81;;;2.04;59.22
76858;BME280;65830;0.000;0.000;2023-04-06T03:00:54;99475.44;;;2.10;58.97
76858;BME280;65830;0.000;0.000;2023-04-06T03:03:19;99490.00;;;1.99;59.05
76858;BME280;65830;0.000;0.000;2023-04-06T03:05:46;99478.50;;;2.02;59.22
76858;BME280;65830;0.000;0.000;2023-04-06T03:08:13;99473.94;;;2.06;59.32
76858;BME280;65830;0.000;0.000;2023-04-06T03:10:42;99476.00;;;2.01;59.58
76858;BME280;65830;0.000;0.000;2023-04-06T03:13:07;99473.84;;;1.93;59.71
76858;BME280;65830;0.000;0.000;2023-04-06T03:15:59;99470.38;;;1.92;59.54
76858;BME280;65830;0.000;0.000;2023-04-06T03:18:26;99477.88;;;1.98;59.47
76858;BME280;65830;0.000;0.000;2023-04-06T03:20:54;99476.38;;;1.94;59.60
76858;BME280;65830;0.000;0.000;2023-04-06T03:23:21;99470.63;;;1.88;60.09
76858;BME280;65830;0.000;0.000;2023-04-06T03:25:52;99475.19;;;1.84;60.02
76858;BME280;65830;0.000;0.000;2023-04-06T03:28:19;99473.53;;;1.83;60.23
76858;BME280;65830;0.000;0.000;2023-04-06T03:31:01;99484.81;;;1.84;60.34
76858;BME280;65830;0.000;0.000;2023-04-06T03:33:52;99481.63;;;1.78;60.47
76858;BME280;65830;0.000;0.000;2023-04-06T03:36:23;99467.69;;;1.78;60.20
76858;BME280;65830;0.000;0.000;2023-04-06T03:38:49;99481.53;;;1.80;60.33
76858;BME280;65830;0.000;0.000;2023-04-06T03:41:14;99478.84;;;1.82;60.47
76858;BME280;65830;0.000;0.000;2023-04-06T03:43:46;99486.59;;;1.83;60.55
76858;BME280;65830;0.000;0.000;2023-04-06T03:46:12;99487.50;;;1.82;60.48
76858;BME280;65830;0.000;0.000;2023-04-06T03:48:38;99478.00;;;1.81;60.69
76858;BME280;65830;0.000;0.000;2023-04-06T03:51:05;99481.28;;;1.85;60.87
76858;BME280;65830;0.000;0.000;2023-04-06T03:53:31;99481.16;;;1.86;60.36
76858;BME280;65830;0.000;0.000;2023-04-06T03:55:56;99483.97;;;1.83;60.59
76858;BME280;65830;0.000;0.000;2023-04-06T03:58:22;99468.97;;;1.87;60.70
76858;BME280;65830;0.000;0.000;2023-04-06T04:00:48;99476.63;;;1.90;60.44
76858;BME280;65830;0.000;0.000;2023-04-06T04:03:13;99481.59;;;1.94;60.41
76858;BME280;65830;0.000;0.000;2023-04-06T04:05:41;99478.34;;;2.05;60.11
76858;BME280;65830;0.000;0.000;2023-04-06T04:08:08;99474.81;;;2.06;60.07
76858;BME280;65830;0.000;0.000;2023-04-06T04:10:33;99474.81;;;2.06;59.88
76858;BME280;65830;0.000;0.000;2023-04-06T04:12:59;99467.72;;;2.08;59.90
76858;BME280;65830;0.000;0.000;2023-04-06T04:15:24;99473.13;;;2.19;59.56
76858;BME280;65830;0.000;0.000;2023-04-06T04:17:50;99471.94;;;2.25;59.25
76858;BME280;65830;0.000;0.000;2023-04-06T04:20:16;99463.16;;;2.26;59.30
76858;BME280;65830;0.000;0.000;2023-04-06T04:22:42;99461.47;;;2.39;58.50
76858;BME280;65830;0.000;0.000;2023-04-06T04:25:09;99465.88;;;2.39;58.51
76858;BME280;65830;0.000;0.000;2023-04-06T04:27:39;99462.81;;;2.47;58.14
76858;BME280;65830;0.000;0.000;2023-04-06T04:30:05;99475.72;;;2.50;58.15
76858;BME280;65830;0.000;0.000;2023-04-06T04:32:31;99466.63;;;2.55;58.11
76858;BME280;65830;0.000;0.000;2023-04-06T04:35:00;99463.75;;;2.60;57.97
76858;BME280;65830;0.000;0.000;2023-04-06T04:37:36;99465.34;;;2.63;57.74
76858;BME280;65830;0.000;0.000;2023-04-06T04:40:03;99467.03;;;2.64;57.67
76858;BME280;65830;0.000;0.000;2023-04-06T04:42:34;99473.47;;;2.72;57.52
76858;BME280;65830;0.000;0.000;2023-04-06T04:45:01;99469.91;;;2.73;57.27
76858;BME280;65830;0.000;0.000;2023-04-06T04:47:37;99460.38;;;2.72;57.46
76858;BME280;65830;0.000;0.000;2023-04-06T04:50:05;99459.25;;;2.76;57.17
76858;BME280;65830;0.000;0.000;2023-04-06T04:52:31;99467.88;;;2.78;57.13
76858;BME280;65830;0.000;0.000;2023-04-06T04:55:09;99457.66;;;2.88;56.96
76858;BME280;65830;0.000;0.000;2023-04-06T04:57:35;99468.88;;;2.90;56.72
76858;BME280;65830;0.000;0.000;2023-04-06T05:00:02;99462.69;;;2.91;56.87
76858;BME280;65830;0.000;0.000;2023-04-06T05:02:29;99461.69;;;2.94;57.00
76858;BME280;65830;0.000;0.000;2023-04-06T05:05:08;99469.34;;;2.97;56.77
76858;BME280;65830;0.000;0.000;2023-04-06T05:07:34;99454.56;;;2.96;56.88
76858;BME280;65830;0.000;0.000;2023-04-06T05:10:00;99457.72;;;3.01;56.41
76858;BME280;65830;0.000;0.000;2023-04-06T05:12:30;99451.25;;;3.07;56.40
76858;BME280;65830;0.000;0.000;2023-04-06T05:15:04;99447.97;;;3.03;56.04
76858;BME280;65830;0.000;0.000;2023-04-06T05:17:30;99452.56;;;3.14;55.68
76858;BME280;65830;0.000;0.000;2023-04-06T05:19:56;99461.94;;;3.18;55.99
76858;BME280;65830;0.000;0.000;2023-04-06T05:22:24;99449.75;;;3.17;55.94
76858;BME280;65830;0.000;0.000;2023-04-06T05:25:01;99448.50;;;3.23;55.34
76858;BME280;65830;0.000;0.000;2023-04-06T05:27:28;99451.31;;;3.34;55.78
76858;BME280;65830;0.000;0.000;2023-04-06T05:29:53;99455.50;;;3.36;55.34
76858;BME280;65830;0.000;0.000;2023-04-06T05:32:19;99456.25;;;3.38;55.02
76858;BME280;65830;0.000;0.000;2023-04-06T05:34:48;99451.66;;;3.42;55.45
76858;BME280;65830;0.000;0.000;2023-04-06T05:37:15;99449.97;;;3.41;55.55
76858;BME280;65830;0.000;0.000;2023-04-06T05:39:41;99443.94;;;3.53;55.70
76858;BME280;65830;0.000;0.000;2023-04-06T05:42:07;99448.13;;;3.56;55.28
76858;BME280;65830;0.000;0.000;2023-04-06T05:44:45;99444.78;;;3.54;55.56
76858;BME280;65830;0.000;0.000;2023-04-06T05:47:13;99437.25;;;3.62;55.53
76858;BME280;65830;0.000;0.000;2023-04-06T05:49:44;99436.81;;;3.55;55.64
76858;BME280;65830;0.000;0.000;2023-04-06T05:52:16;99431.97;;;3.49;55.59
76858;BME280;65830;0.000;0.000;2023-04-06T05:54:45;99434.28;;;3.54;55.57
76858;BME280;65830;0.000;0.000;2023-04-06T05:57:10;99434.72;;;3.61;55.79
76858;BME280;65830;0.000;0.000;2023-04-06T05:59:36;99430.19;;;3.63;55.19
76858;BME280;65830;0.000;0.000;2023-04-06T06:02:02;99431.81;;;3.65;54.97
76858;BME280;65830;0.000;0.000;2023-04-06T06:04:33;99427.41;;;3.78;54.51
76858;BME280;65830;0.000;0.000;2023-04-06T06:06:58;99409.16;;;3.77;54.91
76858;BME280;65830;0.000;0.000;2023-04-06T06:09:35;99415.47;;;3.87;54.61
76858;BME280;65830;0.000;0.000;2023-04-06T06:12:15;99406.44;;;3.91;53.87
76858;BME280;65830;0.000;0.000;2023-04-06T06:14:41;99405.22;;;3.97;53.60
76858;BME280;65830;0.000;0.000;2023-04-06T06:17:06;99404.47;;;4.08;53.45
76858;BME280;65830;0.000;0.000;2023-04-06T06:19:33;99406.91;;;4.11;53.34
76858;BME280;65830;0.000;0.000;2023-04-06T06:22:02;99411.72;;;4.17;52.92
76858;BME280;65830;0.000;0.000;2023-04-06T06:24:28;99411.72;;;4.17;52.78
76858;BME280;65830;0.000;0.000;2023-04-06T06:26:55;99409.00;;;4.31;52.88
76858;BME280;65830;0.000;0.000;2023-04-06T06:29:25;99407.84;;;4.35;52.47
76858;BME280;65830;0.000;0.000;2023-04-06T06:31:50;99407.53;;;4.40;52.40
76858;BME280;65830;0.000;0.000;2023-04-06T06:34:16;99405.50;;;4.44;52.08
76858;BME280;65830;0.000;0.000;2023-04-06T06:36:42;99414.66;;;4.51;51.88
76858;BME280;65830;0.000;0.000;2023-04-06T06:39:11;99418.75;;;4.55;51.59
76858;BME280;65830;0.000;0.000;2023-04-06T06:41:36;99413.31;;;4.58;51.10
76858;BME280;65830;0.000;0.000;2023-04-06T06:44:03;99410.00;;;4.67;51.18
76858;BME280;65830;0.000;0.000;2023-04-06T06:46:29;99411.03;;;4.77;51.07
76858;BME280;65830;0.000;0.000;2023-04-06T06:48:54;99424.91;;;4.92;50.32
76858;BME280;65830;0.000;0.000;2023-04-06T06:51:20;99418.09;;;4.90;50.44
76858;BME280;65830;0.000;0.000;2023-04-06T06:53:45;99407.22;;;4.94;50.76
76858;BME280;65830;0.000;0.000;2023-04-06T06:56:11;99413.75;;;5.02;50.35
76858;BME280;65830;0.000;0.000;2023-04-06T06:58:38;99406.53;;;5.16;50.52
76858;BME280;65830;0.000;0.000;2023-04-06T07:01:03;99412.81;;;5.27;50.84
76858;BME280;65830;0.000;0.000;2023-04-06T07:03:30;99402.06;;;5.30;49.55
76858;BME280;65830;0.000;0.000;2023-04-06T07:05:56;99414.09;;;5.21;50.01
76858;BME280;65830;0.000;0.000;2023-04-06T07:08:23;99408.63;;;5.24;50.18
76858;BME280;65830;0.000;0.000;2023-04-06T07:10:49;99395.75;;;5.32;50.42
76858;BME280;65830;0.000;0.000;2023-04-06T07:13:17;99412.34;;;5.33;50.41
76858;BME280;65830;0.000;0.000;2023-04-06T07:15:48;99401.16;;;5.42;49.86
76858;BME280;65830;0.000;0.000;2023-04-06T07:18:13;99410.50;;;5.46;50.60
76858;BME280;65830;0.000;0.000;2023-04-06T07:20:39;99414.41;;;5.65;49.83
76858;BME280;65830;0.000;0.000;2023-04-06T07:23:06;99401.88;;;5.68;49.71
76858;BME280;65830;0.000;0.000;2023-04-06T07:25:32;99414.25;;;5.79;49.68
76858;BME280;65830;0.000;0.000;2023-04-06T07:27:57;99401.66;;;5.71;49.53
76858;BME280;65830;0.000;0.000;2023-04-06T07:30:24;99423.91;;;5.78;49.76
76858;BME280;65830;0.000;0.000;2023-04-06T07:32:52;99423.50;;;5.85;48.57
76858;BME280;65830;0.000;0.000;2023-04-06T07:35:18;99410.38;;;5.72;49.21
76858;BME280;65830;0.000;0.000;2023-04-06T07:37:44;99418.66;;;5.78;48.78
76858;BME280;65830;0.000;0.000;2023-04-06T07:40:09;99408.28;;;5.88;49.11
76858;BME280;65830;0.000;0.000;2023-04-06T07:42:36;99413.25;;;6.04;49.05
76858;BME280;65830;0.000;0.000;2023-04-06T07:45:05;99402.41;;;6.09;48.75
76858;BME280;65830;0.000;0.000;2023-04-06T07:47:31;99398.56;;;6.24;50.63
76858;BME280;65830;0.000;0.000;2023-04-06T07:49:57;99399.09;;;6.41;48.79
76858;BME280;65830;0.000;0.000;2023-04-06T07:52:22;99403.63;;;6.27;48.56
76858;BME280;65830;0.000;0.000;2023-04-06T07:54:48;99404.84;;;6.34;48.11
76858;BME280;65830;0.000;0.000;2023-04-06T07:57:14;99403.84;;;6.35;48.46
76858;BME280;65830;0.000;0.000;2023-04-06T07:59:40;99397.41;;;6.40;48.64
76858;BME280;65830;0.000;0.000;2023-04-06T08:02:05;99403.28;;;6.43;48.03
76858;BME280;65830;0.000;0.000;2023-04-06T08:04:31;99411.19;;;6.54;48.70
76858;BME280;65830;0.000;0.000;2023-04-06T08:06:57;99407.22;;;6.49;48.31
76858;BME280;65830;0.000;0.000;2023-04-06T08:09:22;99404.47;;;6.62;48.66
76858;BME280;65830;0.000;0.000;2023-04-06T08:11:48;99402.94;;;6.70;48.23
76858;BME280;65830;0.000;0.000;2023-04-06T08:14:14;99391.19;;;6.74;47.57
76858;BME280;65830;0.000;0.000;2023-04-06T08:16:40;99392.25;;;6.83;48.00
76858;BME280;65830;0.000;0.000;2023-04-06T08:19:06;99391.41;;;6.94;47.56
76858;BME280;65830;0.000;0.000;2023-04-06T08:21:34;99390.09;;;6.88;47.18
76858;BME280;65830;0.000;0.000;2023-04-06T08:24:00;99390.16;;;7.09;47.48
76858;BME280;65830;0.000;0.000;2023-04-06T08:26:26;99394.09;;;7.15;46.99
76858;BME280;65830;0.000;0.000;2023-04-06T08:28:51;99387.03;;;7.15;47.85
76858;BME280;65830;0.000;0.000;2023-04-06T08:31:17;99383.63;;;7.25;47.12
76858;BME280;65830;0.000;0.000;2023-04-06T08:33:42;99384.94;;;7.42;46.88
76858;BME280;65830;0.000;0.000;2023-04-06T08:36:08;99378.53;;;7.44;46.38
76858;BME280;65830;0.000;0.000;2023-04-06T08:38:35;99377.81;;;7.53;46.84
76858;BME280;65830;0.000;0.000;2023-04-06T08:41:06;99373.66;;;7.61;46.79
76858;BME280;65830;0.000;0.000;2023-04-06T08:43:31;99376.78;;;7.66;46.17
76858;BME280;65830;0.000;0.000;2023-04-06T08:45:57;99384.50;;;7.58;45.84
76858;BME280;65830;0.000;0.000;2023-04-06T08:48:24;99371.03;;;7.61;46.46
76858;BME280;65830;0.000;0.000;2023-04-06T08:50:50;99359.94;;;7.67;46.02
76858;BME280;65830;0.000;0.000;2023-04-06T08:53:16;99368.53;;;7.80;45.70
76858;BME280;65830;0.000;0.000;2023-04-06T08:55:42;99351.03;;;7.79;45.18
76858;BME280;65830;0.000;0.000;2023-04-06T08:58:08;99346.13;;;7.95;45.76
76858;BME280;65830;0.000;0.000;2023-04-06T09:00:36;99339.59;;;8.00;45.27
76858;BME280;65830;0.000;0.000;2023-04-06T09:03:02;99340.91;;;8.05;45.06
76858;BME280;65830;0.000;0.000;2023-04-06T09:05:28;99341.59;;;8.07;45.09
76858;BME280;65830;0.000;0.000;2023-04-06T09:07:54;99353.19;;;8.16;45.48
76858;BME280;65830;0.000;0.000;2023-04-06T09:10:20;99350.47;;;8.27;45.26
76858;BME280;65830;0.000;0.000;2023-04-06T09:12:48;99341.00;;;8.25;44.87
76858;BME280;65830;0.000;0.000;2023-04-06T09:15:17;99335.72;;;8.25;45.16
76858;BME280;65830;0.000;0.000;2023-04-06T09:17:43;99320.94;;;8.22;43.58
76858;BME280;65830;0.000;0.000;2023-04-06T09:20:09;99333.44;;;8.20;44.19
76858;BME280;65830;0.000;0.000;2023-04-06T09:22:36;99331.31;;;8.35;44.77
76858;BME280;65830;0.000;0.000;2023-04-06T09:25:02;99329.72;;;8.53;44.36
76858;BME280;65830;0.000;0.000;2023-04-06T09:27:31;99324.72;;;8.60;44.05
76858;BME280;65830;0.000;0.000;2023-04-06T09:30:10;99325.63;;;8.70;44.17
76858;BME280;65830;0.000;0.000;2023-04-06T09:32:51;99318.97;;;8.76;44.41
76858;BME280;65830;0.000;0.000;2023-04-06T09:35:18;99317.00;;;8.88;42.65
76858;BME280;65830;0.000;0.000;2023-04-06T09:37:45;99314.81;;;9.03;42.61
76858;BME280;65830;0.000;0.000;2023-04-06T09:40:12;99305.59;;;8.97;43.46
76858;BME280;65830;0.000;0.000;2023-04-06T09:43:24;99325.84;;;9.08;42.74
76858;BME280;65830;0.000;0.000;2023-04-06T09:45:50;99305.34;;;9.00;41.69
76858;BME280;65830;0.000;0.000;2023-04-06T09:48:17;99301.31;;;9.06;41.63
76858;BME280;65830;0.000;0.000;2023-04-06T09:50:43;99310.22;;;9.14;41.88
76858;BME280;65830;0.000;0.000;2023-04-06T09:53:09;99307.84;;;9.21;41.30
76858;BME280;65830;0.000;0.000;2023-04-06T09:55:36;99300.22;;;9.28;41.50
76858;BME280;65830;0.000;0.000;2023-04-06T09:58:05;99304.25;;;9.22;41.29
76858;BME280;65830;0.000;0.000;2023-04-06T10:00:40;99304.50;;;9.29;41.70
76858;BME280;65830;0.000;0.000;2023-04-06T10:03:19;99292.28;;;9.28;41.36
76858;BME280;65830;0.000;0.000;2023-04-06T10:05:52;99296.69;;;9.57;41.41
76858;BME280;65830;0.000;0.000;2023-04-06T10:08:20;99291.50;;;9.74;40.79
76858;BME280;65830;0.000;0.000;2023-04-06T10:10:48;99286.66;;;9.60;40.64
76858;BME280;65830;0.000;0.000;2023-04-06T10:13:15;99292.09;;;9.59;40.51
76858;BME280;65830;0.000;0.000;2023-04-06T10:15:41;99284.81;;;9.70;41.51
76858;BME280;65830;0.000;0.000;2023-04-06T10:18:07;99280.75;;;9.86;40.94
76858;BME280;65830;0.000;0.000;2023-04-06T10:23:06;99275.81;;;10.01;39.92
76858;BME280;65830;0.000;0.000;2023-04-06T10:25:33;99283.25;;;9.87;39.96
76858;BME280;65830;0.000;0.000;2023-04-06T10:28:05;99280.63;;;9.87;39.43
76858;BME280;65830;0.000;0.000;2023-04-06T10:30:32;99273.25;;;9.81;39.45
76858;BME280;65830;0.000;0.000;2023-04-06T10:32:58;99279.34;;;9.91;39.71
76858;BME280;65830;0.000;0.000;2023-04-06T10:35:23;99268.75;;;9.91;39.77
76858;BME280;65830;0.000;0.000;2023-04-06T10:37:50;99261.22;;;9.87;39.43
76858;BME280;65830;0.000;0.000;2023-04-06T10:40:20;99276.00;;;9.89;39.36
76858;BME280;65830;0.000;0.000;2023-04-06T10:42:46;99264.44;;;9.81;40.17
76858;BME280;65830;0.000;0.000;2023-04-06T10:45:19;99252.66;;;10.03;40.14
76858;BME280;65830;0.000;0.000;2023-04-06T10:47:44;99259.34;;;10.07;39.67
76858;BME280;65830;0.000;0.000;2023-04-06T10:50:11;99250.66;;;10.14;39.58
76858;BME280;65830;0.000;0.000;2023-04-06T10:52:39;99253.66;;;10.39;39.25
76858;BME280;65830;0.000;0.000;2023-04-06T10:55:05;99248.66;;;10.54;39.25
76858;BME280;65830;0.000;0.000;2023-04-06T10:57:31;99239.63;;;10.75;38.46
76858;BME280;65830;0.000;0.000;2023-04-06T10:59:58;99251.00;;;10.85;38.09
76858;BME280;65830;0.000;0.000;2023-04-06T11:02:23;99235.88;;;10.67;37.68
76858;BME280;65830;0.000;0.000;2023-04-06T11:04:55;99229.00;;;10.75;38.30
76858;BME280;65830;0.000;0.000;2023-04-06T11:07:25;99229.97;;;10.91;37.35
76858;BME280;65830;0.000;0.000;2023-04-06T11:09:52;99235.97;;;11.11;37.27
76858;BME280;65830;0.000;0.000;2023-04-06T11:12:24;99235.28;;;11.09;36.81
76858;BME280;65830;0.000;0.000;2023-04-06T11:14:57;99223.44;;;11.22;36.07
76858;BME280;65830;0.000;0.000;2023-04-06T11:17:30;99234.28;;;11.28;35.58
76858;BME280;65830;0.000;0.000;2023-04-06T11:19:56;99237.78;;;11.29;35.71
76858;BME280;65830;0.000;0.000;2023-04-06T11:22:22;99221.84;;;11.29;36.38
76858;BME280;65830;0.000;0.000;2023-04-06T11:24:47;99224.25;;;11.40;36.06
76858;BME280;65830;0.000;0.000;2023-04-06T11:27:14;99216.78;;;11.62;35.97
76858;BME280;65830;0.000;0.000;2023-04-06T11:29:41;99222.19;;;11.52;35.70
76858;BME280;65830;0.000;0.000;2023-04-06T11:32:07;99215.00;;;11.44;35.58
76858;BME280;65830;0.000;0.000;2023-04-06T11:34:35;99210.97;;;11.66;36.43
76858;BME280;65830;0.000;0.000;2023-04-06T11:37:08;99212.75;;;11.84;35.44
76858;BME280;65830;0.000;0.000;2023-04-06T11:39:46;99215.41;;;11.84;35.58
76858;BME280;65830;0.000;0.000;2023-04-06T11:42:20;99211.13;;;11.91;35.72
76858;BME280;65830;0.000;0.000;2023-04-06T11:44:46;99227.81;;;12.01;35.22
76858;BME280;65830;0.000;0.000;2023-04-06T11:47:12;99221.84;;;11.81;34.61
76858;BME280;65830;0.000;0.000;2023-04-06T11:49:38;99200.59;;;12.07;34.99
76858;BME280;65830;0.000;0.000;2023-04-06T11:52:14;99205.00;;;12.33;34.38
76858;BME280;65830;0.000;0.000;2023-04-06T11:54:39;99212.31;;;12.31;34.68
76858;BME280;65830;0.000;0.000;2023-04-06T11:57:07;99213.44;;;12.20;35.50
76858;BME280;65830;0.000;0.000;2023-04-06T11:59:33;99215.88;;;12.05;34.35
76858;BME280;65830;0.000;0.000;2023-04-06T12:01:58;99204.25;;;11.80;35.05
76858;BME280;65830;0.000;0.000;2023-04-06T12:04:24;99205.22;;;11.79;35.37
76858;BME280;65830;0.000;0.000;2023-04-06T12:06:49;99210.38;;;11.81;35.39
76858;BME280;65830;0.000;0.000;2023-04-06T12:09:16;99211.94;;;11.65;35.32
76858;BME280;65830;0.000;0.000;2023-04-06T12:11:42;99207.84;;;11.71;35.24
76858;BME280;65830;0.000;0.000;2023-04-06T12:14:08;99199.91;;;12.05;35.54
76858;BME280;65830;0.000;0.000;2023-04-06T12:16:34;99201.00;;;12.29;35.10
76858;BME280;65830;0.000;0.000;2023-04-06T12:18:59;99205.16;;;12.31;34.96
76858;BME280;65830;0.000;0.000;2023-04-06T12:21:28;99200.22;;;12.45;34.97
76858;BME280;65830;0.000;0.000;2023-04-06T12:23:56;99199.38;;;12.52;35.34
76858;BME280;65830;0.000;0.000;2023-04-06T12:26:21;99207.34;;;12.36;35.39
76858;BME280;65830;0.000;0.000;2023-04-06T12:28:47;99198.88;;;12.41;34.95
76858;BME280;65830;0.000;0.000;2023-04-06T12:31:16;99193.25;;;12.52;34.93
76858;BME280;65830;0.000;0.000;2023-04-06T12:33:42;99196.69;;;12.36;35.22
76858;BME280;65830;0.000;0.000;2023-04-06T12:36:11;99188.28;;;12.65;35.00
76858;BME280;65830;0.000;0.000;2023-04-06T12:38:37;99196.63;;;13.11;34.68
76858;BME280;65830;0.000;0.000;2023-04-06T12:41:05;99195.63;;;13.62;33.29
76858;BME280;65830;0.000;0.000;2023-04-06T12:43:31;99186.13;;;13.59;33.37
76858;BME280;65830;0.000;0.000;2023-04-06T12:45:56;99179.31;;;13.57;33.58
76858;BME280;65830;0.000;0.000;2023-04-06T12:48:22;99185.84;;;13.46;33.88
76858;BME280;65830;0.000;0.000;2023-04-06T12:50:54;99180.84;;;13.26;34.03
76858;BME280;65830;0.000;0.000;2023-04-06T12:53:20;99184.31;;;12.86;33.93
76858;BME280;65830;0.000;0.000;2023-04-06T12:55:45;99193.97;;;12.70;34.87
76858;BME280;65830;0.000;0.000;2023-04-06T12:58:10;99179.81;;;12.70;34.73
76858;BME280;65830;0.000;0.000;2023-04-06T13:00:36;99182.16;;;12.81;35.10
76858;BME280;65830;0.000;0.000;2023-04-06T13:03:02;99176.50;;;12.84;34.66
76858;BME280;65830;0.000;0.000;2023-04-06T13:05:27;99179.00;;;12.86;34.89
76858;BME280;65830;0.000;0.000;2023-04-06T13:07:53;99179.47;;;12.57;34.61
76858;BME280;65830;0.000;0.000;2023-04-06T13:10:18;99170.97;;;12.45;35.20
76858;BME280;65830;0.000;0.000;2023-04-06T13:12:44;99186.34;;;12.25;34.89
76858;BME280;65830;0.000;0.000;2023-04-06T13:15:10;99177.22;;;12.19;35.20
76858;BME280;65830;0.000;0.000;2023-04-06T13:17:35;99178.28;;;12.00;35.62
76858;BME280;65830;0.000;0.000;2023-04-06T13:20:01;99169.00;;;11.78;36.08
76858;BME280;65830;0.000;0.000;2023-04-06T13:22:26;99184.22;;;11.60;35.85
76858;BME280;65830;0.000;0.000;2023-04-06T13:24:52;99170.06;;;11.59;36.13